Etusivu
METAR-TAF:

METAR-TAF

Lentoasemat :

Yorkton, Saskatchewan, Kanada

Leveyspiiri: 51-16N, Pituuspiiri: 102-28W, korkeus merenpinnasta: 498 m

Tämänhetkinen sää

Tämä raportti tehtiin 20 minuuttia sitten, kello 01.00 UTC
Tuuli 22 kn lännestä puuskistuen 29 kn:hen
Lämpötila 19°C
Kosteus 32%
Ilmanpaine 1004 hPa
Näkyvyys: 14.5 km
Muutamia pilviä 8000 ft:n korkeudessa

METAR: CYQV 040100Z AUTO 27022G29KT 9SM FEW080 19/02 A2966 RMK SLP050 DENSITY ALT 2800FT

Aika: 19:20 (01:20 UTC)

Sääennuste

Tämä raportti tehtiin 1 tunti ja 34 minuuttia sitten, kello 23.46 UTC
Ennuste voimassa 04. päivästä klo 00 UTC - 04. päivään klo 06 UTC
Tuuli 20 kn lännestä puuskistuen 30 kn:hen
Näkyvyys: 10 km
Muutamia pilviä 8000 ft:n korkeudessa
Tulossa
04. päivästä klo 04 UTC - 04. päivään klo 06 UTC
Tuuli 15 kn lännestä

TAF: CYQV 032346Z 0400/0406 26020G30KT P6SM FEW080 BECMG 0404/0406 27015KT RMK FCST BASED ON AUTO OBS. NXT FCST WILL BE ISSUED AT 041145Z

Säähavainnot ja -ennusteet yli 4000 lentoasemalta (METAR- ja TAF-raportit).

Käytössä olevat sääasemat on merkitty karttaan keltaisilla ja punaisilla pisteillä.

Aseta hiiri pisteen päälle nähdäksesi sääaseman nimen.

Klikkaa sitten nähdäksesi säähavainnot ja -ennusteet.

Kartan vaihtaminen: klikkaa mustalla rastilla varustettuja vihreitä pisteitä, niin voit zoomata sisään; viivalla varustettua vihreää pistettä, niin voit zoomata ulos tai vihreitä nuolia, niin pääset viereisille kartoille.


METAR-TAF: